Time;durP1;ratioP1;P1;durP2;ratioP2;P2;SDS_P1;SDS_P2;PMS_P1;PMS_P2;Temp;Humidity;BMP_temperature;BMP_pressure;BME280_temperature;BME280_humidity;BME280_pressure;Samples;Min_cycle;Max_cycle;Signal;HPM_P1;HPM_P2
2022/07/24 00:00:42;;;;;;;0.00;0.00;;;;;;;;;;4936159;29;20507;-83
2022/07/24 00:03:09;;;;;;;0.00;0.00;;;;;;;;;;4919508;29;20090;-83
2022/07/24 00:05:35;;;;;;;0.00;0.00;;;;;;;;;;4936660;29;20046;-83
2022/07/24 00:08:01;;;;;;;0.00;0.00;;;;;;;;;;4934932;29;20127;-83
2022/07/24 00:10:27;;;;;;;0.00;0.00;;;;;;;;;;4935095;29;20044;-84
2022/07/24 00:12:53;;;;;;;0.00;0.00;;;;;;;;;;4934915;29;20428;-84
2022/07/24 00:15:19;;;;;;;0.00;0.00;;;;;;;;;;4935002;29;20047;-84
2022/07/24 00:17:45;;;;;;;0.00;0.00;;;;;;;;;;4934769;29;20051;-84
2022/07/24 00:20:11;;;;;;;0.00;0.00;;;;;;;;;;4936201;29;20035;-84
2022/07/24 00:22:37;;;;;;;0.00;0.00;;;;;;;;;;4934624;29;20097;-84
2022/07/24 00:25:03;;;;;;;0.00;0.00;;;;;;;;;;4934944;29;20099;-83
2022/07/24 00:27:29;;;;;;;0.00;0.00;;;;;;;;;;4935992;29;20118;-83
2022/07/24 00:29:55;;;;;;;0.00;0.00;;;;;;;;;;4936116;29;20090;-83
2022/07/24 00:32:21;;;;;;;0.00;0.00;;;;;;;;;;4935749;29;20054;-83
2022/07/24 00:34:47;;;;;;;0.00;0.00;;;;;;;;;;4934714;29;20396;-83
2022/07/24 00:37:13;;;;;;;0.00;0.00;;;;;;;;;;4934440;29;20385;-84
2022/07/24 00:39:39;;;;;;;0.00;0.00;;;;;;;;;;4934643;29;20107;-83
2022/07/24 00:42:05;;;;;;;0.00;0.00;;;;;;;;;;4935501;29;20077;-86
2022/07/24 00:44:31;;;;;;;0.00;0.00;;;;;;;;;;4934941;29;20126;-83
2022/07/24 00:46:57;;;;;;;0.00;0.00;;;;;;;;;;4934430;29;20123;-84
2022/07/24 00:49:23;;;;;;;0.00;0.00;;;;;;;;;;4934832;29;20050;-84
2022/07/24 00:51:51;;;;;;;0.00;0.00;;;;;;;;;;4934502;29;20395;-84
2022/07/24 00:54:18;;;;;;;0.00;0.00;;;;;;;;;;4934565;29;20087;-84
2022/07/24 00:56:45;;;;;;;0.00;0.00;;;;;;;;;;4935966;29;20047;-84
2022/07/24 00:59:11;;;;;;;0.00;0.00;;;;;;;;;;4935580;29;20075;-84
2022/07/24 01:01:37;;;;;;;0.00;0.00;;;;;;;;;;4934406;29;20403;-84
2022/07/24 01:04:03;;;;;;;0.00;0.00;;;;;;;;;;4934225;29;20396;-84
2022/07/24 01:06:30;;;;;;;0.00;0.00;;;;;;;;;;4935804;29;20048;-84
2022/07/24 01:08:56;;;;;;;0.00;0.00;;;;;;;;;;4935598;29;20129;-84
2022/07/24 01:11:22;;;;;;;0.00;0.00;;;;;;;;;;4935461;29;20568;-84
2022/07/24 01:13:49;;;;;;;0.00;0.00;;;;;;;;;;4934303;29;20488;-84
2022/07/24 01:16:15;;;;;;;0.00;0.00;;;;;;;;;;4934184;29;20051;-84
2022/07/24 01:18:41;;;;;;;0.00;0.00;;;;;;;;;;4933882;29;20054;-84
2022/07/24 01:21:07;;;;;;;0.30;0.10;;;;;;;;;;4934215;29;20044;-84
2022/07/24 01:23:33;;;;;;;0.00;0.00;;;;;;;;;;4935184;29;20492;-84
2022/07/24 01:26:00;;;;;;;0.00;0.00;;;;;;;;;;4934346;29;20039;-83
2022/07/24 01:28:25;;;;;;;0.00;0.00;;;;;;;;;;4934251;29;20106;-83
2022/07/24 01:30:52;;;;;;;0.00;0.00;;;;;;;;;;4935313;29;20122;-83
2022/07/24 01:33:18;;;;;;;0.00;0.00;;;;;;;;;;4934182;29;20485;-82
2022/07/24 01:35:44;;;;;;;0.00;0.00;;;;;;;;;;4935542;29;20054;-83
2022/07/24 01:38:12;;;;;;;0.00;0.00;;;;;;;;;;4935368;29;20121;-83
2022/07/24 01:40:39;;;;;;;0.00;0.00;;;;;;;;;;4935290;29;20107;-83
2022/07/24 01:43:05;;;;;;;0.00;0.00;;;;;;;;;;4935176;29;20052;-83
2022/07/24 01:45:31;;;;;;;0.00;0.00;;;;;;;;;;4935449;29;20543;-83
2022/07/24 01:47:58;;;;;;;0.00;0.00;;;;;;;;;;4933953;29;20122;-83
2022/07/24 01:50:24;;;;;;;0.00;0.00;;;;;;;;;;4935408;29;20044;-83
2022/07/24 01:52:52;;;;;;;0.00;0.00;;;;;;;;;;4933655;29;20048;-84
2022/07/24 01:55:18;;;;;;;0.00;0.00;;;;;;;;;;4933989;29;20055;-85
2022/07/24 01:57:44;;;;;;;0.00;0.00;;;;;;;;;;4933821;29;20051;-85
2022/07/24 02:00:14;;;;;;;0.00;0.00;;;;;;;;;;4933728;29;20415;-84
2022/07/24 02:02:40;;;;;;;0.00;0.00;;;;;;;;;;4935079;29;20099;-84
2022/07/24 02:05:07;;;;;;;0.00;0.00;;;;;;;;;;4934076;29;20043;-84
2022/07/24 02:07:33;;;;;;;0.00;0.00;;;;;;;;;;4917734;29;20131;-83
2022/07/24 02:09:59;;;;;;;0.00;0.00;;;;;;;;;;4934991;29;20039;-84
2022/07/24 02:12:25;;;;;;;0.00;0.00;;;;;;;;;;4934073;29;20066;-83
2022/07/24 02:14:51;;;;;;;0.00;0.00;;;;;;;;;;4933517;29;20051;-84
2022/07/24 02:17:17;;;;;;;0.00;0.00;;;;;;;;;;4933671;29;20499;-84
2022/07/24 02:19:43;;;;;;;0.00;0.00;;;;;;;;;;4935205;29;20048;-84
2022/07/24 02:22:08;;;;;;;0.00;0.00;;;;;;;;;;4937028;29;20469;-84
2022/07/24 02:24:34;;;;;;;0.00;0.00;;;;;;;;;;4937220;29;20126;-84
2022/07/24 02:27:01;;;;;;;0.00;0.00;;;;;;;;;;4937075;29;20051;-84
2022/07/24 02:29:27;;;;;;;0.00;0.00;;;;;;;;;;4936784;29;20108;-84
2022/07/24 02:31:53;;;;;;;0.00;0.00;;;;;;;;;;4938281;29;20044;-84
2022/07/24 02:34:19;;;;;;;0.00;0.00;;;;;;;;;;4937065;29;20123;-84
2022/07/24 02:36:44;;;;;;;0.00;0.00;;;;;;;;;;4937077;29;20208;-84
2022/07/24 02:39:10;;;;;;;0.00;0.00;;;;;;;;;;4936631;29;20075;-83
2022/07/24 02:41:36;;;;;;;0.00;0.00;;;;;;;;;;4938080;29;20039;-84
2022/07/24 02:44:03;;;;;;;0.00;0.00;;;;;;;;;;4938035;29;20074;-83
2022/07/24 02:46:29;;;;;;;0.00;0.00;;;;;;;;;;4936709;29;20044;-84
2022/07/24 02:48:55;;;;;;;0.00;0.00;;;;;;;;;;4937833;29;20412;-83
2022/07/24 02:51:21;;;;;;;0.00;0.00;;;;;;;;;;4936484;29;20046;-84
2022/07/24 02:53:47;;;;;;;0.00;0.00;;;;;;;;;;4937909;29;20418;-84
2022/07/24 02:56:13;;;;;;;0.00;0.00;;;;;;;;;;4936847;29;20048;-84
2022/07/24 02:58:39;;;;;;;0.00;0.00;;;;;;;;;;4936296;29;20200;-83
2022/07/24 03:01:05;;;;;;;0.00;0.00;;;;;;;;;;4936113;29;20186;-83
2022/07/24 03:03:31;;;;;;;0.00;0.00;;;;;;;;;;4936322;29;20051;-83
2022/07/24 03:05:57;;;;;;;0.00;0.00;;;;;;;;;;4937678;29;20047;-82
2022/07/24 03:08:22;;;;;;;0.00;0.00;;;;;;;;;;4936243;29;20476;-82
2022/07/24 03:10:49;;;;;;;0.00;0.00;;;;;;;;;;4936158;29;20147;-83
2022/07/24 03:13:15;;;;;;;0.00;0.00;;;;;;;;;;4936244;29;20054;-84
2022/07/24 03:15:41;;;;;;;0.00;0.00;;;;;;;;;;4936296;29;20090;-83
2022/07/24 03:18:07;;;;;;;0.00;0.00;;;;;;;;;;4937600;29;20081;-83
2022/07/24 03:20:33;;;;;;;0.00;0.00;;;;;;;;;;4936069;29;20109;-83
2022/07/24 03:23:00;;;;;;;0.00;0.00;;;;;;;;;;4937535;29;20078;-83
2022/07/24 03:25:25;;;;;;;0.00;0.00;;;;;;;;;;4937333;29;20051;-83
2022/07/24 03:27:52;;;;;;;0.00;0.00;;;;;;;;;;4935884;29;20403;-83
2022/07/24 03:30:18;;;;;;;0.00;0.00;;;;;;;;;;4935422;29;20048;-84
2022/07/24 03:32:45;;;;;;;0.00;0.00;;;;;;;;;;4919596;29;20054;-84
2022/07/24 03:35:11;;;;;;;0.00;0.00;;;;;;;;;;4936011;29;20079;-83
2022/07/24 03:37:37;;;;;;;0.00;0.00;;;;;;;;;;4935773;29;20486;-83
2022/07/24 03:40:04;;;;;;;0.00;0.00;;;;;;;;;;4935988;29;20043;-83
2022/07/24 03:42:30;;;;;;;0.00;0.00;;;;;;;;;;4935561;29;20079;-83
2022/07/24 03:44:56;;;;;;;0.00;0.00;;;;;;;;;;4935553;29;20059;-84
2022/07/24 03:47:22;;;;;;;0.00;0.00;;;;;;;;;;4935477;29;20052;-83
2022/07/24 03:49:48;;;;;;;0.00;0.00;;;;;;;;;;4935622;29;20121;-84
2022/07/24 03:52:14;;;;;;;0.10;0.00;;;;;;;;;;4935844;29;20052;-83
2022/07/24 03:54:40;;;;;;;0.00;0.00;;;;;;;;;;4935288;29;20143;-83
2022/07/24 03:57:06;;;;;;;0.00;0.00;;;;;;;;;;4936588;29;20051;-83
2022/07/24 03:59:32;;;;;;;0.00;0.00;;;;;;;;;;4936498;29;20087;-84
2022/07/24 04:01:58;;;;;;;0.00;0.00;;;;;;;;;;4935113;29;20052;-83
2022/07/24 04:04:24;;;;;;;0.00;0.00;;;;;;;;;;4935364;29;20050;-84
2022/07/24 04:06:50;;;;;;;0.00;0.00;;;;;;;;;;4935272;29;20403;-84
2022/07/24 04:09:16;;;;;;;0.00;0.00;;;;;;;;;;4935059;29;20135;-83
2022/07/24 04:11:44;;;;;;;0.00;0.00;;;;;;;;;;4936486;29;20043;-83
2022/07/24 04:14:10;;;;;;;0.00;0.00;;;;;;;;;;4935036;29;20340;-83
2022/07/24 04:16:36;;;;;;;0.00;0.00;;;;;;;;;;4936447;29;20051;-84
2022/07/24 04:19:02;;;;;;;0.00;0.00;;;;;;;;;;4935303;29;20436;-84
2022/07/24 04:21:28;;;;;;;0.00;0.00;;;;;;;;;;4934805;29;20048;-83
2022/07/24 04:23:54;;;;;;;0.00;0.00;;;;;;;;;;4936474;29;20115;-84
2022/07/24 04:26:20;;;;;;;0.00;0.00;;;;;;;;;;4934797;29;20047;-83
2022/07/24 04:28:46;;;;;;;0.00;0.00;;;;;;;;;;4936357;29;20049;-83
2022/07/24 04:31:12;;;;;;;0.00;0.00;;;;;;;;;;4934488;29;20067;-84
2022/07/24 04:33:38;;;;;;;0.00;0.00;;;;;;;;;;4936168;29;20047;-83
2022/07/24 04:36:05;;;;;;;0.00;0.00;;;;;;;;;;4935852;29;20040;-84
2022/07/24 04:38:32;;;;;;;0.00;0.00;;;;;;;;;;4936107;29;20040;-84
2022/07/24 04:40:58;;;;;;;0.00;0.00;;;;;;;;;;4934606;29;20079;-84
2022/07/24 04:43:24;;;;;;;0.00;0.00;;;;;;;;;;4934513;29;20075;-86
2022/07/24 04:45:50;;;;;;;0.00;0.00;;;;;;;;;;4935863;29;20181;-83
2022/07/24 04:48:16;;;;;;;0.00;0.00;;;;;;;;;;4934686;29;20083;-84
2022/07/24 04:50:42;;;;;;;0.00;0.00;;;;;;;;;;4934384;29;20040;-83
2022/07/24 04:53:08;;;;;;;0.00;0.00;;;;;;;;;;4934843;29;20051;-83
2022/07/24 04:55:34;;;;;;;0.00;0.00;;;;;;;;;;4935688;29;20395;-83
2022/07/24 04:58:00;;;;;;;0.00;0.00;;;;;;;;;;4935966;29;20040;-83
2022/07/24 05:00:26;;;;;;;0.00;0.00;;;;;;;;;;4935437;29;20539;-83
2022/07/24 05:02:52;;;;;;;0.00;0.00;;;;;;;;;;4934295;29;20048;-83
2022/07/24 05:05:18;;;;;;;0.00;0.00;;;;;;;;;;4918784;29;20190;-84
2022/07/24 05:07:44;;;;;;;0.00;0.00;;;;;;;;;;4935599;29;20039;-83
2022/07/24 05:10:10;;;;;;;0.00;0.00;;;;;;;;;;4934351;29;20040;-83
2022/07/24 05:12:36;;;;;;;0.00;0.00;;;;;;;;;;4934283;29;20054;-84
2022/07/24 05:15:02;;;;;;;0.00;0.00;;;;;;;;;;4934434;29;20051;-83
2022/07/24 05:17:28;;;;;;;0.00;0.00;;;;;;;;;;4934502;29;20039;-83
2022/07/24 05:19:54;;;;;;;0.00;0.00;;;;;;;;;;4935324;29;20472;-84
2022/07/24 05:22:20;;;;;;;0.00;0.00;;;;;;;;;;4934165;29;20087;-84
2022/07/24 05:24:46;;;;;;;0.00;0.00;;;;;;;;;;4934020;29;20043;-84
2022/07/24 05:27:11;;;;;;;0.00;0.00;;;;;;;;;;4934016;29;20040;-83
2022/07/24 05:29:38;;;;;;;0.00;0.00;;;;;;;;;;4934405;29;20043;-83
2022/07/24 05:32:04;;;;;;;0.00;0.00;;;;;;;;;;4933878;29;20460;-83
2022/07/24 05:34:30;;;;;;;0.00;0.00;;;;;;;;;;4935640;29;20048;-83
2022/07/24 05:36:56;;;;;;;0.00;0.00;;;;;;;;;;4935307;29;20098;-83
2022/07/24 05:39:22;;;;;;;0.00;0.00;;;;;;;;;;4934145;29;20047;-83
2022/07/24 05:41:48;;;;;;;0.00;0.00;;;;;;;;;;4935053;29;20407;-83
2022/07/24 05:44:14;;;;;;;0.00;0.00;;;;;;;;;;4934161;29;20053;-83
2022/07/24 05:46:40;;;;;;;0.00;0.00;;;;;;;;;;4935070;29;20122;-83
2022/07/24 05:49:05;;;;;;;0.00;0.00;;;;;;;;;;4934034;29;20052;-83
2022/07/24 05:51:31;;;;;;;0.00;0.00;;;;;;;;;;4933911;29;20055;-83
2022/07/24 05:53:58;;;;;;;0.00;0.00;;;;;;;;;;4934449;29;20052;-83
2022/07/24 05:56:23;;;;;;;0.00;0.00;;;;;;;;;;4937390;29;20131;-85
2022/07/24 05:58:49;;;;;;;0.00;0.00;;;;;;;;;;4938934;29;20126;-83
2022/07/24 06:01:15;;;;;;;0.00;0.00;;;;;;;;;;4937216;29;20482;-83
2022/07/24 06:03:41;;;;;;;0.00;0.00;;;;;;;;;;4938884;29;20047;-82
2022/07/24 06:06:07;;;;;;;0.00;0.00;;;;;;;;;;4937414;29;20047;-84
2022/07/24 06:08:33;;;;;;;0.00;0.00;;;;;;;;;;4937434;29;20044;-85
2022/07/24 06:10:59;;;;;;;0.00;0.00;;;;;;;;;;4933726;29;20377;-84
2022/07/24 06:13:25;;;;;;;0.00;0.00;;;;;;;;;;4934464;29;20055;-84
2022/07/24 06:15:51;;;;;;;0.00;0.00;;;;;;;;;;4935400;29;20415;-84
2022/07/24 06:18:17;;;;;;;0.00;0.00;;;;;;;;;;4918564;29;20071;-83
2022/07/24 06:20:44;;;;;;;0.00;0.00;;;;;;;;;;4933935;29;20432;-84
2022/07/24 06:23:10;;;;;;;0.00;0.00;;;;;;;;;;4934214;29;20044;-84
2022/07/24 06:25:36;;;;;;;0.00;0.00;;;;;;;;;;4934043;29;20048;-84
2022/07/24 06:28:02;;;;;;;0.00;0.00;;;;;;;;;;4935773;29;20380;-83
2022/07/24 06:30:28;;;;;;;0.00;0.00;;;;;;;;;;4934261;29;20050;-84
2022/07/24 06:32:56;;;;;;;0.00;0.00;;;;;;;;;;4934093;29;20531;-83
2022/07/24 06:35:22;;;;;;;0.00;0.00;;;;;;;;;;4933876;29;20051;-84
2022/07/24 06:37:48;;;;;;;0.00;0.00;;;;;;;;;;4934168;29;20039;-83
2022/07/24 06:40:18;;;;;;;0.00;0.00;;;;;;;;;;4918200;29;20052;-83
2022/07/24 06:42:44;;;;;;;0.00;0.00;;;;;;;;;;4935199;29;20168;-83
2022/07/24 06:45:11;;;;;;;0.00;0.00;;;;;;;;;;4933984;29;20051;-83
2022/07/24 06:47:37;;;;;;;0.00;0.00;;;;;;;;;;4933681;29;20086;-82
2022/07/24 06:50:04;;;;;;;0.00;0.00;;;;;;;;;;4935228;29;20035;-87
2022/07/24 06:52:30;;;;;;;0.00;0.00;;;;;;;;;;4933630;29;20043;-86
2022/07/24 06:54:56;;;;;;;0.00;0.00;;;;;;;;;;4935059;29;20058;-86
2022/07/24 06:57:22;;;;;;;0.00;0.00;;;;;;;;;;4933338;29;20124;-85
2022/07/24 06:59:48;;;;;;;0.10;0.08;;;;;;;;;;4933340;29;20139;-85
2022/07/24 07:02:14;;;;;;;0.00;0.00;;;;;;;;;;4933244;29;20047;-86
2022/07/24 07:04:40;;;;;;;0.00;0.00;;;;;;;;;;4933622;29;20044;-85
2022/07/24 07:07:06;;;;;;;0.00;0.00;;;;;;;;;;4933300;29;20389;-84
2022/07/24 07:09:31;;;;;;;0.00;0.00;;;;;;;;;;4933419;29;20050;-85
2022/07/24 07:11:57;;;;;;;0.00;0.00;;;;;;;;;;4933042;29;20114;-85
2022/07/24 07:14:23;;;;;;;0.00;0.00;;;;;;;;;;4933328;29;20055;-85
2022/07/24 07:16:49;;;;;;;0.00;0.00;;;;;;;;;;4932956;29;20130;-84
2022/07/24 07:19:15;;;;;;;0.00;0.00;;;;;;;;;;4933245;29;20051;-85
2022/07/24 07:21:41;;;;;;;0.00;0.00;;;;;;;;;;4932866;29;20051;-85
2022/07/24 07:24:07;;;;;;;0.00;0.00;;;;;;;;;;4934475;29;20047;-87
2022/07/24 07:26:33;;;;;;;0.00;0.00;;;;;;;;;;4932992;29;20499;-86
2022/07/24 07:28:59;;;;;;;0.00;0.00;;;;;;;;;;4934025;29;20075;-80
2022/07/24 07:31:26;;;;;;;0.00;0.00;;;;;;;;;;4934999;29;20056;-86
2022/07/24 07:33:52;;;;;;;0.00;0.00;;;;;;;;;;4936153;29;20124;-89
2022/07/24 07:36:18;;;;;;;0.00;0.00;;;;;;;;;;4935791;29;20059;-87
2022/07/24 07:38:44;;;;;;;0.00;0.00;;;;;;;;;;4937162;29;20075;-87
2022/07/24 07:41:11;;;;;;;0.05;0.00;;;;;;;;;;4935613;29;20044;-88
2022/07/24 07:43:38;;;;;;;0.00;0.00;;;;;;;;;;4936067;29;20122;-87
2022/07/24 07:46:04;;;;;;;0.10;0.00;;;;;;;;;;4936163;29;20395;-87
2022/07/24 07:48:30;;;;;;;0.00;0.00;;;;;;;;;;4937022;29;20043;-87
2022/07/24 07:50:57;;;;;;;0.00;0.00;;;;;;;;;;4936562;29;20412;-87
2022/07/24 07:53:23;;;;;;;0.00;0.00;;;;;;;;;;4936832;29;20047;-87
2022/07/24 07:55:51;;;;;;;0.00;0.00;;;;;;;;;;4936803;29;20035;-88
2022/07/24 07:58:17;;;;;;;0.00;0.00;;;;;;;;;;4935265;29;20496;-86
2022/07/24 08:00:43;;;;;;;0.00;0.00;;;;;;;;;;4935152;29;20106;-87
2022/07/24 08:03:09;;;;;;;0.00;0.00;;;;;;;;;;4936395;29;20484;-87
2022/07/24 08:05:35;;;;;;;0.00;0.00;;;;;;;;;;4935274;29;20047;-87
2022/07/24 08:08:02;;;;;;;0.00;0.00;;;;;;;;;;4935007;29;20525;-88
2022/07/24 08:10:28;;;;;;;0.00;0.00;;;;;;;;;;4935375;29;20504;-87
2022/07/24 08:12:54;;;;;;;0.00;0.00;;;;;;;;;;4934912;29;20127;-86
2022/07/24 08:15:20;;;;;;;0.00;0.00;;;;;;;;;;4935440;29;20079;-87
2022/07/24 08:17:46;;;;;;;0.00;0.00;;;;;;;;;;4935813;29;20132;-82
2022/07/24 08:20:12;;;;;;;0.00;0.00;;;;;;;;;;4935077;29;20098;-85
2022/07/24 08:22:38;;;;;;;0.00;0.00;;;;;;;;;;4934882;29;20075;-84
2022/07/24 08:25:04;;;;;;;0.00;0.00;;;;;;;;;;4933979;29;20126;-84
2022/07/24 08:27:30;;;;;;;0.00;0.00;;;;;;;;;;4936230;29;20452;-84
2022/07/24 08:29:56;;;;;;;0.00;0.00;;;;;;;;;;4936292;29;20056;-84
2022/07/24 08:32:22;;;;;;;0.20;0.00;;;;;;;;;;4936061;29;20044;-84
2022/07/24 08:34:48;;;;;;;0.00;0.00;;;;;;;;;;4936980;29;20051;-85
2022/07/24 08:37:14;;;;;;;0.00;0.00;;;;;;;;;;4935651;29;20056;-84
2022/07/24 08:39:40;;;;;;;0.00;0.00;;;;;;;;;;4937413;29;20441;-84
2022/07/24 08:42:08;;;;;;;0.00;0.00;;;;;;;;;;4934981;29;20096;-85
2022/07/24 08:44:34;;;;;;;0.00;0.00;;;;;;;;;;4936949;29;20043;-85
2022/07/24 08:47:00;;;;;;;0.00;0.00;;;;;;;;;;4936544;29;20044;-83
2022/07/24 08:49:27;;;;;;;0.00;0.00;;;;;;;;;;4934798;29;20079;-85
2022/07/24 08:51:54;;;;;;;0.00;0.00;;;;;;;;;;4934586;29;20054;-84
2022/07/24 08:54:19;;;;;;;0.00;0.00;;;;;;;;;;4935826;29;20491;-84
2022/07/24 08:56:46;;;;;;;0.13;0.00;;;;;;;;;;4935939;29;20130;-84
2022/07/24 08:59:16;;;;;;;0.00;0.00;;;;;;;;;;4934228;29;20055;-85
2022/07/24 09:01:42;;;;;;;0.00;0.00;;;;;;;;;;4918509;29;20047;-84
2022/07/24 09:04:28;;;;;;;0.00;0.00;;;;;;;;;;4934399;29;20055;-84
2022/07/24 09:06:58;;;;;;;0.00;0.00;;;;;;;;;;4934157;29;20050;-85
2022/07/24 09:09:24;;;;;;;0.00;0.00;;;;;;;;;;4934385;29;20043;-85
2022/07/24 09:11:51;;;;;;;0.00;0.00;;;;;;;;;;4934485;29;20067;-83
2022/07/24 09:14:29;;;;;;;0.00;0.00;;;;;;;;;;4934228;29;20051;-86
2022/07/24 09:17:02;;;;;;;0.00;0.00;;;;;;;;;;4935723;29;20138;-86
2022/07/24 09:19:28;;;;;;;0.00;0.00;;;;;;;;;;4934470;29;20052;-87
2022/07/24 09:21:54;;;;;;;0.00;0.00;;;;;;;;;;4934011;29;20048;-87
2022/07/24 09:24:21;;;;;;;0.00;0.00;;;;;;;;;;4935520;29;20047;-86
2022/07/24 09:26:47;;;;;;;0.00;0.00;;;;;;;;;;4934425;29;20043;-86
2022/07/24 09:29:14;;;;;;;0.00;0.00;;;;;;;;;;4936440;29;20498;-87
2022/07/24 09:31:50;;;;;;;0.00;0.00;;;;;;;;;;4937990;29;20058;-88
2022/07/24 09:34:16;;;;;;;0.00;0.00;;;;;;;;;;4939004;29;20516;-87
2022/07/24 09:36:42;;;;;;;0.00;0.00;;;;;;;;;;4937840;29;20050;-87
2022/07/24 09:39:08;;;;;;;0.00;0.00;;;;;;;;;;4939039;29;20542;-87
2022/07/24 09:41:50;;;;;;;0.00;0.00;;;;;;;;;;4939188;29;20043;-88
2022/07/24 09:44:16;;;;;;;0.10;0.10;;;;;;;;;;4939245;29;20047;-87
2022/07/24 09:46:46;;;;;;;0.00;0.00;;;;;;;;;;4937848;29;20095;-88
2022/07/24 09:49:19;;;;;;;0.00;0.00;;;;;;;;;;4937583;29;20127;-87
2022/07/24 09:51:45;;;;;;;0.00;0.00;;;;;;;;;;4937960;29;20124;-87
2022/07/24 09:54:11;;;;;;;0.00;0.00;;;;;;;;;;4939633;29;20094;-89
2022/07/24 09:56:38;;;;;;;0.25;0.10;;;;;;;;;;4939091;29;20059;-89
2022/07/24 09:59:07;;;;;;;0.00;0.00;;;;;;;;;;4937308;29;20147;-89
2022/07/24 10:01:34;;;;;;;0.00;0.00;;;;;;;;;;4938843;29;20051;-91
2022/07/24 10:04:01;;;;;;;0.00;0.00;;;;;;;;;;4937697;29;20051;-89
2022/07/24 10:06:27;;;;;;;0.00;0.00;;;;;;;;;;4938072;29;20492;-92
2022/07/24 10:08:53;;;;;;;0.00;0.00;;;;;;;;;;4941067;29;20043;-90
2022/07/24 10:11:21;;;;;;;0.00;0.00;;;;;;;;;;4939142;29;20098;-86
2022/07/24 10:13:47;;;;;;;0.00;0.00;;;;;;;;;;4937346;29;20447;-89
2022/07/24 10:16:13;;;;;;;0.00;0.00;;;;;;;;;;4921385;29;20083;-89
2022/07/24 10:18:46;;;;;;;0.00;0.00;;;;;;;;;;4938591;29;20035;-88
2022/07/24 10:21:16;;;;;;;0.00;0.00;;;;;;;;;;4937298;29;20048;-88
2022/07/24 10:23:51;;;;;;;0.00;0.00;;;;;;;;;;4938514;29;20112;-88
2022/07/24 10:26:24;;;;;;;0.00;0.00;;;;;;;;;;4938477;29;20451;-88
2022/07/24 10:28:54;;;;;;;0.00;0.00;;;;;;;;;;4938110;29;20040;-87
2022/07/24 10:31:20;;;;;;;0.10;0.00;;;;;;;;;;4937148;29;20036;-87
2022/07/24 10:33:49;;;;;;;0.00;0.00;;;;;;;;;;4938122;29;20380;-89
2022/07/24 10:36:18;;;;;;;0.00;0.00;;;;;;;;;;4938172;29;20651;-89
2022/07/24 10:38:49;;;;;;;0.00;0.00;;;;;;;;;;4938051;29;20067;-86
2022/07/24 10:41:21;;;;;;;0.00;0.00;;;;;;;;;;4936177;29;20044;-85
2022/07/24 10:44:10;;;;;;;0.00;0.00;;;;;;;;;;4936817;29;20098;-85
2022/07/24 10:46:56;;;;;;;0.00;0.00;;;;;;;;;;4923834;29;20040;-86
2022/07/24 10:49:35;;;;;;;0.00;0.00;;;;;;;;;;4919099;29;20044;-85
2022/07/24 10:52:01;;;;;;;0.00;0.00;;;;;;;;;;4918747;29;20492;-86
2022/07/24 10:54:27;;;;;;;0.00;0.00;;;;;;;;;;4918924;29;20048;-87
2022/07/24 10:56:53;;;;;;;0.00;0.00;;;;;;;;;;4917550;29;20508;-85
2022/07/24 10:59:33;;;;;;;0.00;0.00;;;;;;;;;;4917550;29;20417;-85
2022/07/24 11:02:19;;;;;;;0.00;0.00;;;;;;;;;;4918821;29;20139;-85
2022/07/24 11:04:45;;;;;;;0.00;0.00;;;;;;;;;;4917276;29;20055;-85
2022/07/24 11:07:12;;;;;;;0.00;0.00;;;;;;;;;;4918568;29;20040;-85
2022/07/24 11:09:57;;;;;;;0.00;0.00;;;;;;;;;;4918638;29;20040;-84
2022/07/24 11:12:27;;;;;;;0.00;0.00;;;;;;;;;;4917418;29;20476;-85
2022/07/24 11:15:53;;;;;;;0.00;0.00;;;;;;;;;;4918815;29;20044;-84
2022/07/24 11:17:47;;;;;;;0.00;0.00;;;;;;;;;;4937230;29;20044;-84
2022/07/24 11:20:15;;;;;;;0.00;0.00;;;;;;;;;;4937420;29;20538;-85
2022/07/24 11:22:47;;;;;;;0.00;0.00;;;;;;;;;;4936023;29;20447;-83
2022/07/24 11:25:18;;;;;;;0.00;0.00;;;;;;;;;;4936294;29;20047;-85
2022/07/24 11:27:46;;;;;;;0.00;0.00;;;;;;;;;;4936463;29;20435;-85
2022/07/24 11:30:13;;;;;;;0.00;0.00;;;;;;;;;;4935999;29;20050;-91
2022/07/24 11:32:40;;;;;;;0.00;0.00;;;;;;;;;;4935896;29;20071;-85
2022/07/24 11:35:08;;;;;;;0.00;0.00;;;;;;;;;;4937005;29;20396;-86
2022/07/24 11:37:35;;;;;;;0.00;0.00;;;;;;;;;;4937236;29;20440;-85
2022/07/24 11:40:01;;;;;;;0.00;0.00;;;;;;;;;;4937163;29;20035;-85
2022/07/24 11:42:27;;;;;;;0.00;0.00;;;;;;;;;;4937074;29;20051;-85
2022/07/24 11:44:53;;;;;;;0.10;0.00;;;;;;;;;;4937102;29;20435;-84
2022/07/24 11:47:20;;;;;;;0.00;0.00;;;;;;;;;;4935652;29;20114;-85
2022/07/24 11:49:47;;;;;;;0.00;0.00;;;;;;;;;;4935519;29;20043;-86
2022/07/24 11:52:34;;;;;;;0.00;0.00;;;;;;;;;;4934658;29;20227;-85
2022/07/24 11:55:10;;;;;;;0.00;0.00;;;;;;;;;;4936573;29;20090;-85
2022/07/24 11:57:37;;;;;;;0.00;0.00;;;;;;;;;;4935773;29;20056;-85
2022/07/24 12:00:04;;;;;;;0.00;0.00;;;;;;;;;;4936436;29;20134;-85
2022/07/24 12:02:30;;;;;;;0.00;0.00;;;;;;;;;;4936711;29;20043;-85
2022/07/24 12:04:56;;;;;;;0.00;0.00;;;;;;;;;;4936394;29;20058;-86
2022/07/24 12:07:24;;;;;;;0.00;0.00;;;;;;;;;;4935561;29;20040;-86
2022/07/24 12:09:54;;;;;;;0.00;0.00;;;;;;;;;;4936642;29;20035;-85
2022/07/24 12:12:26;;;;;;;0.00;0.00;;;;;;;;;;4936458;29;20047;-85
2022/07/24 12:14:54;;;;;;;0.00;0.00;;;;;;;;;;4935350;29;20043;-86
2022/07/24 12:17:20;;;;;;;0.00;0.00;;;;;;;;;;4919227;29;20522;-85
2022/07/24 12:19:53;;;;;;;0.00;0.00;;;;;;;;;;4934885;29;20047;-84
2022/07/24 12:22:20;;;;;;;0.00;0.00;;;;;;;;;;4936392;29;20044;-85
2022/07/24 12:24:46;;;;;;;0.00;0.00;;;;;;;;;;4935109;29;20194;-85
2022/07/24 12:27:12;;;;;;;0.00;0.00;;;;;;;;;;4936420;29;20400;-85
2022/07/24 12:29:42;;;;;;;0.00;0.00;;;;;;;;;;4934887;29;20051;-85
2022/07/24 12:32:18;;;;;;;0.00;0.00;;;;;;;;;;4936359;29;20044;-85
2022/07/24 12:34:45;;;;;;;0.00;0.00;;;;;;;;;;4934745;29;20054;-85
2022/07/24 12:37:18;;;;;;;0.00;0.00;;;;;;;;;;4934994;29;20051;-85
2022/07/24 12:39:52;;;;;;;0.47;0.00;;;;;;;;;;4934841;29;20235;-85
2022/07/24 12:42:19;;;;;;;0.00;0.00;;;;;;;;;;4936124;29;20043;-85
2022/07/24 12:44:45;;;;;;;0.20;0.00;;;;;;;;;;4936026;29;20114;-86
2022/07/24 12:47:12;;;;;;;0.00;0.00;;;;;;;;;;4934592;29;20399;-85
2022/07/24 12:49:42;;;;;;;0.00;0.00;;;;;;;;;;4935851;29;20044;-84
2022/07/24 12:52:19;;;;;;;0.00;0.00;;;;;;;;;;4934524;29;20054;-86
2022/07/24 12:54:46;;;;;;;0.00;0.00;;;;;;;;;;4935858;29;20035;-86
2022/07/24 12:57:12;;;;;;;0.00;0.00;;;;;;;;;;4935957;29;20036;-87
2022/07/24 12:59:39;;;;;;;0.00;0.00;;;;;;;;;;4935500;29;20130;-85
2022/07/24 13:02:32;;;;;;;0.00;0.00;;;;;;;;;;4935553;29;20075;-87
2022/07/24 13:04:58;;;;;;;0.00;0.00;;;;;;;;;;4933179;29;20479;-86
2022/07/24 13:07:25;;;;;;;0.00;0.00;;;;;;;;;;4935903;29;20078;-86
2022/07/24 13:09:52;;;;;;;0.00;0.00;;;;;;;;;;4935498;29;20126;-87
2022/07/24 13:12:19;;;;;;;0.00;0.00;;;;;;;;;;4934359;29;20053;-87
2022/07/24 13:14:45;;;;;;;0.00;0.00;;;;;;;;;;4934375;29;20507;-85
2022/07/24 13:17:14;;;;;;;0.00;0.00;;;;;;;;;;4935712;29;20086;-86
2022/07/24 13:19:42;;;;;;;0.00;0.00;;;;;;;;;;4935272;29;20040;-86
2022/07/24 13:22:08;;;;;;;0.00;0.00;;;;;;;;;;4935696;29;20075;-85
2022/07/24 13:24:34;;;;;;;0.00;0.00;;;;;;;;;;4935558;29;20044;-87
2022/07/24 13:27:00;;;;;;;0.00;0.00;;;;;;;;;;4934228;29;20052;-86
2022/07/24 13:29:27;;;;;;;0.00;0.00;;;;;;;;;;4934649;29;20040;-88
2022/07/24 13:31:53;;;;;;;0.00;0.00;;;;;;;;;;4934056;29;20048;-85
2022/07/24 13:34:19;;;;;;;0.00;0.00;;;;;;;;;;4934229;29;20056;-85
2022/07/24 13:36:46;;;;;;;0.00;0.00;;;;;;;;;;4934210;29;20085;-85
2022/07/24 13:39:12;;;;;;;0.00;0.00;;;;;;;;;;4935687;29;20098;-86
2022/07/24 13:41:38;;;;;;;0.00;0.00;;;;;;;;;;4917774;29;20039;-86
2022/07/24 13:44:05;;;;;;;0.00;0.00;;;;;;;;;;4934001;29;20047;-85
2022/07/24 13:46:32;;;;;;;0.00;0.00;;;;;;;;;;4933666;29;20412;-84
2022/07/24 13:48:59;;;;;;;0.00;0.00;;;;;;;;;;4934006;29;20399;-85
2022/07/24 13:51:25;;;;;;;0.00;0.00;;;;;;;;;;4933984;29;20475;-85
2022/07/24 13:53:52;;;;;;;0.00;0.00;;;;;;;;;;4934116;29;20047;-86
2022/07/24 13:56:18;;;;;;;0.00;0.00;;;;;;;;;;4935267;29;20043;-84
2022/07/24 13:58:44;;;;;;;0.00;0.00;;;;;;;;;;4935359;29;20376;-85
2022/07/24 14:01:12;;;;;;;0.00;0.00;;;;;;;;;;4935184;29;20075;-86
2022/07/24 14:03:42;;;;;;;0.00;0.00;;;;;;;;;;4935384;29;20083;-86
2022/07/24 14:06:09;;;;;;;0.00;0.00;;;;;;;;;;4935053;29;20095;-85
2022/07/24 14:08:35;;;;;;;0.00;0.00;;;;;;;;;;4934224;29;20040;-84
2022/07/24 14:11:01;;;;;;;0.00;0.00;;;;;;;;;;4933505;29;20534;-85
2022/07/24 14:13:27;;;;;;;0.00;0.00;;;;;;;;;;4933881;29;20506;-86
2022/07/24 14:15:53;;;;;;;0.00;0.00;;;;;;;;;;4934336;29;20047;-87
2022/07/24 14:18:20;;;;;;;0.00;0.00;;;;;;;;;;4938778;29;20052;-86
2022/07/24 14:20:46;;;;;;;0.00;0.00;;;;;;;;;;4937157;29;20055;-86
2022/07/24 14:23:12;;;;;;;0.00;0.00;;;;;;;;;;4938696;29;20051;-86
2022/07/24 14:25:39;;;;;;;0.00;0.00;;;;;;;;;;4936954;29;20131;-86
2022/07/24 14:28:05;;;;;;;0.00;0.00;;;;;;;;;;4937204;29;20051;-87
2022/07/24 14:30:31;;;;;;;0.00;0.00;;;;;;;;;;4936887;29;20043;-86
2022/07/24 14:32:57;;;;;;;0.00;0.00;;;;;;;;;;4937118;29;20047;-86
2022/07/24 14:35:23;;;;;;;0.00;0.00;;;;;;;;;;4938318;29;20090;-87
2022/07/24 14:37:49;;;;;;;0.32;0.32;;;;;;;;;;4936932;29;20047;-86
2022/07/24 14:40:15;;;;;;;0.00;0.00;;;;;;;;;;4938027;29;20095;-86
2022/07/24 14:42:41;;;;;;;0.00;0.00;;;;;;;;;;4936766;29;20559;-87